Time;durP1;ratioP1;P1;durP2;ratioP2;P2;SDS_P1;SDS_P2;PMS_P1;PMS_P2;Temp;Humidity;BMP_temperature;BMP_pressure;BME280_temperature;BME280_humidity;BME280_pressure;Samples;Min_cycle;Max_cycle;Signal;HPM_P1;HPM_P2
2021/06/05 08:39:06;;;;;;;3.45;1.48;;;19.30;99.90;;;;;;6317180;27;20207;-78
2021/06/05 08:42:07;;;;;;;2.05;1.85;;;20.80;99.90;;;;;;6296766;28;20438;-79
2021/06/05 08:45:08;;;;;;;1.60;1.50;;;19.00;99.90;;;;;;6279716;28;20040;-79
2021/06/05 08:48:17;;;;;;;1.70;1.60;;;19.10;99.90;;;;;;6280293;28;20178;-81
2021/06/05 08:51:25;;;;;;;1.83;1.30;;;19.20;99.90;;;;;;6279940;28;20032;-78
2021/06/05 08:54:34;;;;;;;2.55;1.55;;;19.00;99.90;;;;;;6296111;28;20086;-83
2021/06/05 08:57:45;;;;;;;2.30;1.40;;;18.90;99.90;;;;;;6314455;28;20059;-80
2021/06/05 09:00:46;;;;;;;1.30;1.30;;;19.00;99.90;;;;;;6262974;28;20039;-78
2021/06/05 09:03:53;;;;;;;1.20;1.20;;;18.90;99.90;;;;;;6296202;28;20092;-78
2021/06/05 09:07:01;;;;;;;3.20;2.45;;;19.00;99.90;;;;;;6279405;28;20036;-77
2021/06/05 09:10:01;;;;;;;1.83;1.52;;;19.20;99.90;;;;;;6279465;28;20093;-78
2021/06/05 09:13:02;;;;;;;2.92;1.90;;;19.20;99.90;;;;;;6295907;28;20397;-81
2021/06/05 09:16:23;;;;;;;3.47;2.28;;;19.30;99.90;;;;;;6279482;28;20032;-79
2021/06/05 09:19:31;;;;;;;1.67;1.58;;;19.40;99.90;;;;;;6279353;28;20455;-80
2021/06/05 09:22:34;;;;;;;1.70;1.60;;;19.20;99.90;;;;;;6279417;28;20361;-79
2021/06/05 09:25:39;;;;;;;11.25;2.50;;;19.60;99.90;;;;;;6279814;28;20032;-77
2021/06/05 09:28:39;;;;;;;3.03;1.45;;;19.40;99.90;;;;;;6295440;28;20017;-78
2021/06/05 09:31:53;;;;;;;1.23;1.20;;;19.60;99.90;;;;;;6295355;28;20036;-77
2021/06/05 09:35:10;;;;;;;2.40;1.73;;;19.40;99.90;;;;;;6295603;28;20017;-78
2021/06/05 09:38:24;;;;;;;1.48;1.38;;;19.50;99.90;;;;;;6313471;28;20386;-81
2021/06/05 09:41:36;;;;;;;1.40;1.40;;;19.20;99.90;;;;;;6312479;28;20055;-78
2021/06/05 09:44:43;;;;;;;1.63;1.52;;;19.40;98.70;;;;;;6279609;28;20024;-78
2021/06/05 09:47:44;;;;;;;2.28;1.27;;;19.50;99.50;;;;;;6277562;28;20025;-78
2021/06/05 09:50:46;;;;;;;1.33;1.27;;;19.50;99.30;;;;;;6277507;28;20454;-78
2021/06/05 09:53:46;;;;;;;1.60;1.50;;;19.50;99.40;;;;;;6277722;28;20047;-79
2021/06/05 09:56:48;;;;;;;1.88;1.30;;;19.80;99.80;;;;;;6260705;28;20037;-79
2021/06/05 10:00:12;;;;;;;3.30;1.70;;;19.80;99.90;;;;;;6277745;28;20370;-80
2021/06/05 10:03:32;;;;;;;1.80;1.40;;;20.20;98.90;;;;;;6277694;28;20033;-80
2021/06/05 10:06:41;;;;;;;2.83;2.00;;;20.30;99.20;;;;;;6294155;28;20107;-81
2021/06/05 10:09:42;;;;;;;1.75;1.30;;;20.40;99.40;;;;;;6259683;28;20032;-80
2021/06/05 10:12:43;;;;;;;1.70;1.60;;;20.40;99.90;;;;;;6277574;28;20029;-79
2021/06/05 10:15:53;;;;;;;1.83;1.73;;;20.30;99.50;;;;;;6260993;28;20484;-78
2021/06/05 10:19:01;;;;;;;2.15;1.33;;;20.60;98.10;;;;;;6261200;28;20033;-75
2021/06/05 10:22:01;;;;;;;2.85;1.83;;;20.60;96.60;;;;;;6244639;28;20028;-75
2021/06/05 10:25:17;;;;;;;1.33;1.23;;;20.30;99.90;;;;;;6294347;28;20150;-76
2021/06/05 10:28:20;;;;;;;1.90;1.73;;;20.20;99.90;;;;;;6275350;28;20044;-80
2021/06/05 10:31:22;;;;;;;1.38;1.35;;;20.00;99.90;;;;;;6275525;28;20032;-80
2021/06/05 10:34:34;;;;;;;3.47;1.65;;;20.00;99.90;;;;;;6260637;28;20025;-83
2021/06/05 10:37:37;;;;;;;4.38;1.63;;;20.10;99.90;;;;;;6275247;28;20143;-82
2021/06/05 10:40:38;;;;;;;1.60;1.50;;;;;;;;;;6275314;28;20041;-82
2021/06/05 10:43:39;;;;;;;1.70;1.60;;;;;;;;;;6272629;28;20025;-83
2021/06/05 10:47:01;;;;;;;1.60;1.48;;;20.70;99.90;;;;;;6275548;28;20020;-77
2021/06/05 10:50:06;;;;;;;1.77;1.57;;;20.40;99.90;;;;;;6293269;28;20824;-84
2021/06/05 10:53:31;;;;;;;2.50;1.60;;;20.40;99.90;;;;;;6241172;28;20308;-81
2021/06/05 10:56:56;;;;;;;1.65;1.55;;;20.10;99.90;;;;;;6278791;28;20071;-82
2021/06/05 11:00:25;;;;;;;1.50;1.40;;;20.80;99.90;;;;;;6277970;28;20024;-80
2021/06/05 11:03:26;;;;;;;1.10;1.10;;;20.80;99.90;;;;;;6258452;28;20036;-79
2021/06/05 11:06:27;;;;;;;1.30;1.30;;;;;;;;;;6294044;28;20089;-81
2021/06/05 11:09:30;;;;;;;2.35;1.50;;;21.10;99.90;;;;;;6293340;28;20025;-79
2021/06/05 11:12:31;;;;;;;1.60;1.50;;;21.40;93.20;;;;;;6275749;28;20056;-79
2021/06/05 11:15:49;;;;;;;1.65;1.55;;;21.80;93.40;;;;;;6275518;28;20039;-81
2021/06/05 11:18:53;;;;;;;1.40;1.40;;;21.70;92.90;;;;;;6246464;28;20598;-81
2021/06/05 11:22:28;;;;;;;1.50;1.40;;;21.60;92.70;;;;;;6276017;28;20017;-81
2021/06/05 11:25:35;;;;;;;1.52;1.42;;;21.70;97.10;;;;;;6274728;28;20123;-79
2021/06/05 11:28:35;;;;;;;1.70;1.60;;;20.70;93.50;;;;;;6276066;28;20031;-83
2021/06/05 11:31:42;;;;;;;2.35;2.15;;;20.40;95.70;;;;;;6274200;28;20036;-79
2021/06/05 11:34:42;;;;;;;2.13;1.52;;;20.50;95.20;;;;;;6259061;28;20032;-78
2021/06/05 11:37:45;;;;;;;2.65;1.70;;;20.60;99.90;;;;;;6293229;28;20449;-79
2021/06/05 11:41:07;;;;;;;3.25;1.60;;;20.90;96.40;;;;;;6275762;28;20086;-79
2021/06/05 11:44:38;;;;;;;2.20;2.00;;;21.20;95.80;;;;;;6293154;28;20024;-80
2021/06/05 11:47:41;;;;;;;3.72;2.58;;;21.30;93.30;;;;;;6273256;28;20040;-78
2021/06/05 11:50:44;;;;;;;3.30;1.90;;;21.40;99.90;;;;;;6258605;28;20020;-83
2021/06/05 11:53:44;;;;;;;2.25;1.77;;;21.40;95.50;;;;;;6275856;28;20024;-77
2021/06/05 11:56:52;;;;;;;2.08;1.83;;;21.60;93.60;;;;;;6258291;28;20106;-76
2021/06/05 11:59:58;;;;;;;1.67;1.58;;;21.60;92.50;;;;;;6274893;28;20085;-79
2021/06/05 12:03:08;;;;;;;1.67;1.58;;;21.30;93.00;;;;;;6259880;28;20099;-78
2021/06/05 12:06:17;;;;;;;2.60;1.52;;;21.40;91.90;;;;;;6274621;28;20062;-79
2021/06/05 12:09:25;;;;;;;2.08;1.80;;;21.30;93.20;;;;;;6274947;28;20581;-78
2021/06/05 12:12:35;;;;;;;1.85;1.75;;;21.00;91.00;;;;;;6275831;28;20103;-78
2021/06/05 12:15:40;;;;;;;2.10;2.00;;;20.80;93.60;;;;;;6258670;28;20465;-78
2021/06/05 12:18:41;;;;;;;1.48;1.38;;;21.00;93.20;;;;;;6275022;28;20043;-79
2021/06/05 12:21:41;;;;;;;1.73;1.63;;;21.50;99.90;;;;;;6242000;28;20370;-83
2021/06/05 12:24:47;;;;;;;2.00;1.80;;;22.50;94.40;;;;;;6258312;28;20466;-86
2021/06/05 12:27:48;;;;;;;1.48;1.42;;;;;;;;;;6258134;28;20087;-81
2021/06/05 12:30:49;;;;;;;2.38;1.50;;;;;;;;;;6258312;28;20039;-88
2021/06/05 12:34:01;;;;;;;1.63;1.53;;;22.00;98.80;;;;;;6259355;28;20359;-78
2021/06/05 12:37:07;;;;;;;1.10;1.10;;;22.10;92.90;;;;;;6274984;28;20097;-82
2021/06/05 12:40:19;;;;;;;1.45;1.45;;;21.90;90.90;;;;;;6242435;28;20670;-83
2021/06/05 12:43:22;;;;;;;1.80;1.50;;;21.50;99.90;;;;;;6259123;28;20366;-88
2021/06/05 12:46:30;;;;;;;1.60;1.52;;;21.40;92.80;;;;;;6242040;28;20033;-89
2021/06/05 12:49:31;;;;;;;1.67;1.58;;;21.30;92.60;;;;;;6229080;28;20028;-87
2021/06/05 12:52:33;;;;;;;1.80;1.70;;;;;;;;;;6241243;28;20493;-87
2021/06/05 12:55:42;;;;;;;1.50;1.40;;;21.20;99.90;;;;;;6258199;28;20191;-87
2021/06/05 12:58:45;;;;;;;1.67;1.58;;;20.90;91.50;;;;;;6242057;28;20062;-89
2021/06/05 13:01:46;;;;;;;3.17;2.45;;;21.70;93.90;;;;;;6242995;28;20037;-88
2021/06/05 13:04:47;;;;;;;2.67;2.07;;;;;;;;;;6242669;28;20033;-89
2021/06/05 13:07:49;;;;;;;1.70;1.60;;;20.80;91.90;;;;;;6248053;28;20398;-88
2021/06/05 13:10:52;;;;;;;1.70;1.60;;;20.70;93.40;;;;;;6243139;28;20082;-89
2021/06/05 13:14:16;;;;;;;2.30;1.80;;;20.40;99.90;;;;;;6242679;28;20025;-89
2021/06/05 13:17:19;;;;;;;1.52;1.42;;;20.40;99.90;;;;;;6259118;28;20045;-89
2021/06/05 13:20:24;;;;;;;1.50;1.40;;;20.40;99.90;;;;;;6275478;28;20074;-89
2021/06/05 13:23:35;;;;;;;1.77;1.67;;;20.50;94.30;;;;;;6259894;28;20024;-89
2021/06/05 13:26:44;;;;;;;1.83;1.70;;;22.20;95.10;;;;;;6247626;28;20021;-89
2021/06/05 13:29:49;;;;;;;1.23;1.23;;;20.40;99.50;;;;;;6247467;28;20089;-90
2021/06/05 13:32:54;;;;;;;1.63;1.52;;;19.70;95.30;;;;;;6248537;28;20044;-89
2021/06/05 13:35:57;;;;;;;2.65;1.70;;;20.60;94.10;;;;;;6247716;28;20514;-90
2021/06/05 13:39:06;;;;;;;3.30;1.90;;;20.90;94.80;;;;;;6246874;28;20055;-88
2021/06/05 13:42:07;;;;;;;1.50;1.40;;;;;;;;;;6247694;28;20035;-89
2021/06/05 13:45:10;;;;;;;1.63;1.38;;;21.10;92.70;;;;;;6257333;28;20025;-89
2021/06/05 13:48:11;;;;;;;1.73;1.63;;;;;;;;;;6247136;28;20021;-90
2021/06/05 13:51:12;;;;;;;1.27;1.17;;;;;;;;;;6263621;28;20027;-90
2021/06/05 13:54:13;;;;;;;2.22;1.60;;;;;;;;;;6263288;28;20029;-91
2021/06/05 13:57:15;;;;;;;1.58;1.50;;;21.60;92.20;;;;;;6263334;28;20101;-90
2021/06/05 14:00:17;;;;;;;2.00;1.90;;;21.70;94.00;;;;;;6247259;28;20459;-90
2021/06/05 14:03:18;;;;;;;1.53;1.43;;;;;;;;;;6263085;28;20082;-89
2021/06/05 14:06:19;;;;;;;1.40;1.40;;;;;;;;;;6263304;28;20051;-88
2021/06/05 14:09:20;;;;;;;2.40;1.63;;;;;;;;;;6263234;28;20024;-89
2021/06/05 14:12:23;;;;;;;1.95;1.83;;;21.60;92.80;;;;;;6263018;28;20028;-90
2021/06/05 14:15:29;;;;;;;3.65;1.70;;;22.10;93.70;;;;;;6246629;28;20035;-89
2021/06/05 14:18:30;;;;;;;1.90;1.63;;;21.60;92.60;;;;;;6262725;28;20382;-88
2021/06/05 14:21:31;;;;;;;1.58;1.48;;;;;;;;;;6246187;28;20028;-90
2021/06/05 14:24:32;;;;;;;1.08;1.08;;;;;;;;;;6262677;28;20074;-91
2021/06/05 14:27:33;;;;;;;1.63;1.52;;;;;;;;;;6262396;28;20501;-89
2021/06/05 14:30:38;;;;;;;2.53;1.50;;;21.30;99.90;;;;;;6262525;28;20020;-90
2021/06/05 14:33:39;;;;;;;1.52;1.42;;;21.20;99.90;;;;;;6246221;28;20454;-89
2021/06/05 14:36:40;;;;;;;2.15;1.30;;;;;;;;;;6244988;28;20064;-88
2021/06/05 14:39:41;;;;;;;1.42;1.40;;;21.20;99.90;;;;;;6261913;28;20537;-88
2021/06/05 14:42:42;;;;;;;1.27;1.23;;;;;;;;;;6245670;28;20028;-88
2021/06/05 14:45:45;;;;;;;1.63;1.52;;;21.00;99.90;;;;;;6261869;28;20029;-89
2021/06/05 14:48:46;;;;;;;2.50;1.70;;;;;;;;;;6245631;28;20414;-89
2021/06/05 14:51:47;;;;;;;1.27;1.25;;;;;;;;;;6261663;28;20504;-88
2021/06/05 14:54:48;;;;;;;1.15;1.15;;;;;;;;;;6261928;28;20145;-88
2021/06/05 14:57:49;;;;;;;1.13;1.13;;;;;;;;;;6261708;28;20028;-90
2021/06/05 15:00:50;;;;;;;2.13;1.30;;;;;;;;;;6261944;28;20060;-89
2021/06/05 15:03:51;;;;;;;1.67;1.30;;;;;;;;;;6261818;28;20028;-89
2021/06/05 15:06:52;;;;;;;1.20;1.20;;;21.10;99.10;;;;;;6261730;28;20024;-88
2021/06/05 15:09:53;;;;;;;1.52;1.42;;;;;;;;;;6249453;28;20070;-89
2021/06/05 15:12:55;;;;;;;0.75;0.75;;;;;;;;;;6261009;28;20030;-89
2021/06/05 15:15:55;;;;;;;2.47;1.37;;;20.80;92.20;;;;;;6251428;28;20462;-88
2021/06/05 15:18:56;;;;;;;2.03;1.30;;;21.10;99.90;;;;;;6244182;28;20071;-89
2021/06/05 15:21:57;;;;;;;1.30;1.30;;;21.30;99.90;;;;;;6260832;28;20023;-90
2021/06/05 15:24:59;;;;;;;1.45;1.35;;;;;;;;;;6244588;28;20028;-89
2021/06/05 15:28:00;;;;;;;1.80;1.50;;;21.60;92.30;;;;;;6261240;28;20024;-88
2021/06/05 15:31:01;;;;;;;0.77;0.77;;;;;;;;;;6244606;28;20031;-88
2021/06/05 15:34:01;;;;;;;1.73;1.63;;;21.90;91.30;;;;;;6260633;28;20082;-89
2021/06/05 15:37:02;;;;;;;4.53;1.60;;;21.90;98.10;;;;;;6243981;28;20063;-88
2021/06/05 15:40:04;;;;;;;1.65;1.55;;;21.80;92.20;;;;;;6259825;28;20405;-88
2021/06/05 15:43:05;;;;;;;;;;;21.70;97.90;;;;;;6245129;28;20036;-88
2021/06/05 15:46:09;;;;;;;1.13;1.13;;;21.40;99.90;;;;;;6259762;28;19909;-88
2021/06/05 15:49:09;;;;;;;1.40;1.40;;;21.30;99.90;;;;;;6244051;28;20032;-88
2021/06/05 15:52:10;;;;;;;2.25;1.45;;;21.20;94.90;;;;;;6243440;28;20085;-88
2021/06/05 15:55:12;;;;;;;1.20;1.20;;;21.10;93.70;;;;;;6243929;28;20032;-88
2021/06/05 15:58:12;;;;;;;1.50;1.40;;;20.80;92.80;;;;;;6244000;28;20052;-89
2021/06/05 16:01:13;;;;;;;1.70;1.27;;;;;;;;;;6259512;28;20443;-89
2021/06/05 16:04:16;;;;;;;1.70;1.60;;;21.20;92.60;;;;;;6259220;28;20031;-78
2021/06/05 16:07:16;;;;;;;1.75;1.60;;;21.30;93.30;;;;;;6293041;28;20029;-81
2021/06/05 16:10:18;;;;;;;1.70;1.42;;;21.50;93.90;;;;;;6258629;28;20024;-81
2021/06/05 16:13:20;;;;;;;3.40;1.23;;;21.90;92.30;;;;;;6258596;28;20462;-82
2021/06/05 16:16:21;;;;;;;2.90;1.55;;;21.90;92.70;;;;;;6258225;28;20034;-83
2021/06/05 16:19:26;;;;;;;1.20;1.20;;;21.80;91.80;;;;;;6241964;28;20037;-80
2021/06/05 16:22:26;;;;;;;1.50;1.30;;;21.80;91.40;;;;;;6275693;28;20021;-80
2021/06/05 16:25:28;;;;;;;7.63;2.40;;;21.60;92.40;;;;;;6258527;28;20024;-84
2021/06/05 16:28:28;;;;;;;1.85;1.35;;;21.70;94.30;;;;;;6258358;28;20033;-79
2021/06/05 16:31:29;;;;;;;0.95;0.95;;;21.60;92.30;;;;;;6275472;28;20051;-83
2021/06/05 16:34:31;;;;;;;0.80;0.80;;;21.50;91.90;;;;;;6242066;28;20020;-78
2021/06/05 16:37:32;;;;;;;3.63;1.80;;;21.30;92.30;;;;;;6258376;28;20048;-80
2021/06/05 16:40:33;;;;;;;3.13;2.45;;;21.00;92.40;;;;;;6258475;28;20489;-78
2021/06/05 16:43:36;;;;;;;1.77;1.43;;;20.90;92.90;;;;;;6292908;28;20030;-78
2021/06/05 16:46:36;;;;;;;1.48;1.15;;;20.90;93.20;;;;;;6258167;28;20500;-77
2021/06/05 16:49:37;;;;;;;1.30;1.20;;;20.80;93.90;;;;;;6242010;28;20504;-80
2021/06/05 16:52:38;;;;;;;4.05;1.20;;;20.70;93.80;;;;;;6292859;28;20029;-81
2021/06/05 16:55:38;;;;;;;0.82;0.82;;;20.50;93.80;;;;;;6258346;28;20024;-80
2021/06/05 16:58:40;;;;;;;1.10;1.10;;;20.70;94.80;;;;;;6275928;28;20115;-78
2021/06/05 17:01:41;;;;;;;;;;;20.30;95.20;;;;;;6263506;28;20112;-77
2021/06/05 17:04:41;;;;;;;1.98;1.20;;;20.30;95.90;;;;;;6279922;28;19904;-81
2021/06/05 17:07:43;;;;;;;1.10;1.10;;;20.20;95.50;;;;;;6297687;28;20115;-78
2021/06/05 17:10:43;;;;;;;2.17;1.20;;;20.20;95.70;;;;;;6263219;28;20400;-79
2021/06/05 17:13:44;;;;;;;2.03;1.83;;;20.20;96.50;;;;;;6279885;28;20025;-82
2021/06/05 17:16:45;;;;;;;1.80;1.15;;;20.40;96.30;;;;;;6279401;28;20104;-79
2021/06/05 17:19:45;;;;;;;1.92;1.45;;;19.70;99.90;;;;;;6246171;28;20032;-79
2021/06/05 17:22:46;;;;;;;3.45;1.70;;;;;;;;;;6279787;28;20099;-80
2021/06/05 17:25:47;;;;;;;1.10;1.07;;;19.90;99.90;;;;;;6262552;28;20367;-75
2021/06/05 17:28:48;;;;;;;1.48;1.38;;;19.90;99.90;;;;;;6296943;28;20093;-78
2021/06/05 17:31:48;;;;;;;1.83;1.73;;;20.10;99.90;;;;;;6278460;28;20082;-78
2021/06/05 17:34:50;;;;;;;2.22;2.05;;;20.00;99.90;;;;;;6245131;28;20039;-76
2021/06/05 17:37:51;;;;;;;3.30;1.50;;;20.00;99.90;;;;;;6296821;28;20057;-76
2021/06/05 17:40:52;;;;;;;2.78;1.50;;;;;;;;;;6296820;28;20067;-76
2021/06/05 17:43:53;;;;;;;2.65;1.58;;;19.50;99.90;;;;;;6296270;28;20028;-75
2021/06/05 17:46:54;;;;;;;1.40;1.40;;;;;;;;;;6295060;28;20043;-76
2021/06/05 17:49:58;;;;;;;1.58;1.48;;;;;;;;;;6296178;28;20417;-77
2021/06/05 17:52:59;;;;;;;1.77;1.67;;;;;;;;;;6296592;28;20104;-75
2021/06/05 17:55:59;;;;;;;1.33;1.30;;;19.50;99.90;;;;;;6296577;28;20104;-76
2021/06/05 17:59:00;;;;;;;3.20;1.60;;;19.50;99.90;;;;;;6296012;28;20691;-76
2021/06/05 18:02:02;;;;;;;1.67;1.58;;;19.50;99.90;;;;;;6295728;28;20024;-76
2021/06/05 18:05:03;;;;;;;3.15;1.75;;;19.60;99.90;;;;;;6278564;28;20060;-77
2021/06/05 18:08:05;;;;;;;2.33;2.03;;;19.20;99.90;;;;;;6277521;28;21058;-76
2021/06/05 18:11:06;;;;;;;;;;;19.10;99.90;;;;;;6278468;28;20032;-76
2021/06/05 18:14:08;;;;;;;1.48;1.40;;;19.00;99.90;;;;;;6278172;28;20335;-76
2021/06/05 18:17:09;;;;;;;2.03;1.83;;;18.60;99.90;;;;;;6261409;28;20450;-76
2021/06/05 18:20:13;;;;;;;1.73;1.63;;;18.80;99.90;;;;;;6277790;28;20043;-77
2021/06/05 18:23:13;;;;;;;2.95;1.60;;;18.60;99.90;;;;;;6277880;28;20413;-77
2021/06/05 18:26:14;;;;;;;1.73;1.63;;;18.70;99.90;;;;;;6277835;28;20039;-76
2021/06/05 18:29:15;;;;;;;1.58;1.48;;;18.50;99.90;;;;;;6276624;28;20102;-78
2021/06/05 18:32:15;;;;;;;1.77;1.67;;;18.30;99.90;;;;;;6295419;28;20025;-79
2021/06/05 18:35:17;;;;;;;1.90;1.80;;;18.20;99.90;;;;;;6277375;28;20119;-77
2021/06/05 18:38:20;;;;;;;2.00;1.75;;;18.10;99.90;;;;;;6260654;28;20419;-80
2021/06/05 18:41:25;;;;;;;1.48;1.38;;;18.00;99.90;;;;;;6260408;28;20032;-78
2021/06/05 18:44:29;;;;;;;4.78;4.18;;;17.80;99.90;;;;;;6295290;28;20476;-77
2021/06/05 18:47:29;;;;;;;4.50;3.75;;;17.60;99.90;;;;;;6277492;28;20458;-77
2021/06/05 18:50:31;;;;;;;1.60;1.50;;;17.70;99.90;;;;;;6276976;28;20036;-78
2021/06/05 18:53:32;;;;;;;1.73;1.57;;;17.60;99.90;;;;;;6276663;28;20089;-76
2021/06/05 18:56:33;;;;;;;1.10;1.10;;;17.50;99.90;;;;;;6273520;28;20028;-76
2021/06/05 18:59:34;;;;;;;1.73;1.52;;;17.60;99.90;;;;;;6294124;28;20044;-76
2021/06/05 19:02:35;;;;;;;1.63;1.52;;;17.60;99.90;;;;;;6259232;28;20389;-76
2021/06/05 19:05:37;;;;;;;2.22;1.60;;;17.50;99.90;;;;;;6294312;28;20025;-77
2021/06/05 19:08:38;;;;;;;3.00;1.67;;;17.40;99.90;;;;;;6259985;28;20111;-75
2021/06/05 19:11:38;;;;;;;2.47;1.77;;;17.40;99.90;;;;;;6294390;28;20371;-76
2021/06/05 19:14:39;;;;;;;2.00;1.40;;;17.30;99.90;;;;;;6259494;28;20103;-77
2021/06/05 19:17:43;;;;;;;3.25;1.67;;;17.10;99.90;;;;;;6276258;28;20039;-78
2021/06/05 19:20:44;;;;;;;2.10;1.38;;;16.90;99.90;;;;;;6293662;28;20017;-75
2021/06/05 19:23:45;;;;;;;1.70;1.60;;;16.80;99.90;;;;;;6293469;28;20465;-75
2021/06/05 19:26:47;;;;;;;1.92;1.83;;;17.00;99.90;;;;;;6275763;28;20031;-75
2021/06/05 19:29:48;;;;;;;10.23;2.92;;;16.90;99.90;;;;;;6276011;28;20060;-76
2021/06/05 19:32:48;;;;;;;4.45;2.10;;;17.10;99.90;;;;;;6293989;28;20082;-76
2021/06/05 19:35:49;;;;;;;3.65;1.77;;;17.00;99.90;;;;;;6275590;28;20027;-74
2021/06/05 19:38:53;;;;;;;6.45;2.53;;;17.20;99.90;;;;;;6275811;28;20096;-76
2021/06/05 19:42:00;;;;;;;4.97;2.72;;;17.30;99.90;;;;;;6293358;28;20512;-75
2021/06/05 19:45:01;;;;;;;2.55;1.83;;;17.40;99.90;;;;;;6293835;28;20459;-78
2021/06/05 19:48:02;;;;;;;3.40;2.22;;;17.60;99.90;;;;;;6293890;28;20550;-75
2021/06/05 19:51:04;;;;;;;2.92;2.00;;;17.70;99.90;;;;;;6293436;28;20593;-77
2021/06/05 19:54:08;;;;;;;5.90;2.70;;;17.60;99.90;;;;;;6293069;28;20115;-75
2021/06/05 19:57:09;;;;;;;3.33;1.90;;;17.70;99.90;;;;;;6292896;28;20074;-75
2021/06/05 20:00:17;;;;;;;4.33;1.90;;;17.90;99.90;;;;;;6293633;28;20033;-76
2021/06/05 20:03:18;;;;;;;2.40;2.20;;;17.80;99.90;;;;;;6275949;28;20024;-75
2021/06/05 20:06:19;;;;;;;4.35;2.67;;;17.80;99.90;;;;;;6275340;28;20028;-77
2021/06/05 20:09:20;;;;;;;2.72;2.35;;;19.20;99.90;;;;;;6292937;28;20102;-76
2021/06/05 20:12:21;;;;;;;2.60;2.08;;;;;;;;;;6274953;28;20024;-76
2021/06/05 20:15:23;;;;;;;1.58;1.58;;;17.30;99.90;;;;;;6292572;28;20025;-76
2021/06/05 20:18:25;;;;;;;1.65;1.55;;;17.40;99.90;;;;;;6274801;28;20071;-75
2021/06/05 20:21:27;;;;;;;;;;;17.30;99.90;;;;;;6275074;28;20017;-75
2021/06/05 20:24:29;;;;;;;2.07;1.40;;;17.00;99.90;;;;;;6292781;28;19904;-78
2021/06/05 20:27:30;;;;;;;1.90;1.40;;;16.90;99.90;;;;;;6258018;28;20265;-80
2021/06/05 20:30:32;;;;;;;1.65;1.52;;;16.80;99.90;;;;;;6275028;28;20033;-77
2021/06/05 20:33:33;;;;;;;;;;;16.80;99.90;;;;;;6292979;28;20040;-79
2021/06/05 20:36:34;;;;;;;2.17;1.50;;;16.60;99.90;;;;;;6290199;28;20415;-79
2021/06/05 20:39:34;;;;;;;2.35;2.05;;;16.60;99.90;;;;;;6274598;28;20111;-78
2021/06/05 20:42:36;;;;;;;2.28;2.08;;;16.90;99.90;;;;;;6257354;28;20016;-79
2021/06/05 20:45:38;;;;;;;2.55;2.35;;;16.70;99.90;;;;;;6258260;28;20037;-79
2021/06/05 20:48:40;;;;;;;3.78;2.70;;;16.90;99.90;;;;;;6258297;28;20037;-80
2021/06/05 20:51:46;;;;;;;2.70;2.50;;;16.60;99.90;;;;;;6241426;28;20024;-80
2021/06/05 20:54:47;;;;;;;2.72;2.35;;;;;;;;;;6239867;28;20055;-79
2021/06/05 20:57:48;;;;;;;4.50;2.60;;;;;;;;;;6274414;28;20024;-79
2021/06/05 21:00:51;;;;;;;2.38;2.17;;;16.40;99.90;;;;;;6292461;28;20035;-79
2021/06/05 21:03:53;;;;;;;2.40;2.20;;;;;;;;;;6241818;28;20086;-80
2021/06/05 21:07:21;;;;;;;2.45;2.15;;;16.50;99.90;;;;;;6261960;28;20028;-80
2021/06/05 21:10:22;;;;;;;2.58;2.13;;;16.40;99.90;;;;;;6291001;28;20047;-79
2021/06/05 21:13:22;;;;;;;2.50;2.30;;;16.50;99.90;;;;;;6257583;28;20589;-80
2021/06/05 21:16:28;;;;;;;3.03;2.40;;;16.30;99.90;;;;;;6258006;28;20032;-79
2021/06/05 21:19:29;;;;;;;2.85;2.60;;;;;;;;;;6258545;28;20483;-78
2021/06/05 21:22:29;;;;;;;2.92;2.63;;;16.40;99.90;;;;;;6274132;28;20027;-79
2021/06/05 21:25:30;;;;;;;4.45;2.80;;;;;;;;;;6257474;28;20402;-80
2021/06/05 21:28:31;;;;;;;4.10;3.65;;;;;;;;;;6290107;28;20100;-78
2021/06/05 21:31:33;;;;;;;2.97;2.67;;;16.20;99.90;;;;;;6274328;28;20025;-78
2021/06/05 21:34:34;;;;;;;2.30;2.10;;;;;;;;;;6257289;28;20064;-78
2021/06/05 21:37:35;;;;;;;4.15;2.88;;;16.20;99.90;;;;;;6291670;28;20363;-80
2021/06/05 21:40:36;;;;;;;3.25;2.95;;;16.00;99.90;;;;;;6240653;28;20028;-78
2021/06/05 21:43:37;;;;;;;2.95;2.65;;;16.20;99.90;;;;;;6257266;28;20025;-78
2021/06/05 21:46:38;;;;;;;3.55;3.00;;;16.20;99.90;;;;;;6277286;28;20024;-81
2021/06/05 21:49:39;;;;;;;3.45;2.80;;;16.10;99.90;;;;;;6277773;28;20344;-79
2021/06/05 21:52:39;;;;;;;4.18;3.42;;;15.90;99.90;;;;;;6244523;28;20033;-79
2021/06/05 21:55:40;;;;;;;3.50;3.20;;;16.10;99.90;;;;;;6278316;28;20124;-80
2021/06/05 21:58:41;;;;;;;4.10;3.55;;;;;;;;;;6260533;28;20043;-80
2021/06/05 22:01:43;;;;;;;4.10;3.70;;;15.70;99.90;;;;;;6277263;28;20024;-79
2021/06/05 22:04:44;;;;;;;;;;;15.80;99.90;;;;;;6262446;28;20066;-80
2021/06/05 22:07:47;;;;;;;4.22;3.83;;;15.70;99.90;;;;;;6277906;28;19958;-79
2021/06/05 22:10:47;;;;;;;6.32;4.20;;;15.50;99.90;;;;;;6277949;28;20036;-79
2021/06/05 22:13:48;;;;;;;4.25;3.85;;;;;;;;;;6261097;28;20078;-79
2021/06/05 22:16:55;;;;;;;4.68;4.03;;;15.60;99.90;;;;;;6277961;28;20475;-79
2021/06/05 22:19:55;;;;;;;4.97;4.47;;;15.70;99.90;;;;;;6277376;28;20474;-79
2021/06/05 22:22:56;;;;;;;5.50;4.70;;;15.60;99.90;;;;;;6261075;28;20056;-78
2021/06/05 22:25:56;;;;;;;4.78;4.20;;;15.30;99.90;;;;;;6277795;28;20520;-79
2021/06/05 22:28:57;;;;;;;4.57;4.13;;;15.50;99.90;;;;;;6277690;28;20518;-79
2021/06/05 22:31:58;;;;;;;6.00;4.55;;;15.70;99.90;;;;;;6295464;28;20032;-79
2021/06/05 22:34:58;;;;;;;4.95;4.20;;;15.80;99.90;;;;;;6260830;28;20025;-79
2021/06/05 22:37:59;;;;;;;6.00;4.50;;;15.80;99.90;;;;;;6260443;28;20471;-79
2021/06/05 22:40:59;;;;;;;6.10;4.72;;;15.50;99.90;;;;;;6276905;28;20101;-79
2021/06/05 22:44:03;;;;;;;5.18;4.55;;;15.70;99.90;;;;;;6260641;28;20084;-80
2021/06/05 22:47:03;;;;;;;5.53;5.03;;;15.80;99.90;;;;;;6261585;28;20118;-79
2021/06/05 22:50:05;;;;;;;6.13;4.18;;;16.00;99.90;;;;;;6260245;28;20601;-79
2021/06/05 22:53:05;;;;;;;5.55;4.75;;;15.80;99.90;;;;;;6277146;28;20095;-79
2021/06/05 22:56:07;;;;;;;4.30;3.90;;;;;;;;;;6259955;28;20037;-78
2021/06/05 22:59:08;;;;;;;6.38;4.38;;;15.60;99.90;;;;;;6276508;28;20386;-79
2021/06/05 23:02:08;;;;;;;5.43;4.22;;;15.40;99.90;;;;;;6260256;28;20158;-79
2021/06/05 23:05:09;;;;;;;5.10;4.60;;;15.30;99.90;;;;;;6276510;28;20072;-79
2021/06/05 23:08:10;;;;;;;5.47;4.57;;;15.60;99.90;;;;;;6294525;28;20032;-79
2021/06/05 23:11:13;;;;;;;5.75;5.25;;;15.40;99.90;;;;;;6272013;28;20044;-80
2021/06/05 23:14:17;;;;;;;7.72;5.43;;;15.60;99.90;;;;;;6259831;28;20020;-80
2021/06/05 23:17:17;;;;;;;5.20;4.68;;;15.40;99.90;;;;;;6276488;28;20032;-79
2021/06/05 23:20:24;;;;;;;5.78;5.22;;;15.50;99.90;;;;;;6294084;28;20093;-79
2021/06/05 23:23:24;;;;;;;6.57;5.88;;;15.40;99.90;;;;;;6260231;28;20029;-82
2021/06/05 23:26:25;;;;;;;6.57;5.00;;;15.70;99.90;;;;;;6294031;28;20063;-80
2021/06/05 23:29:26;;;;;;;6.25;5.10;;;15.50;99.90;;;;;;6259226;28;20052;-79
2021/06/05 23:32:26;;;;;;;7.68;5.68;;;15.20;99.90;;;;;;6259464;28;20069;-79
2021/06/05 23:35:30;;;;;;;5.93;5.30;;;15.20;99.90;;;;;;6293569;28;20028;-80
2021/06/05 23:38:35;;;;;;;6.05;5.45;;;15.30;99.90;;;;;;6275717;28;20060;-79
2021/06/05 23:41:36;;;;;;;7.28;6.00;;;15.40;99.90;;;;;;6259635;28;20051;-80
2021/06/05 23:44:37;;;;;;;9.30;5.97;;;;;;;;;;6259306;28;20091;-80
2021/06/05 23:47:37;;;;;;;6.43;5.82;;;15.40;99.90;;;;;;6292937;28;20083;-80
2021/06/05 23:50:41;;;;;;;6.30;5.70;;;15.40;99.90;;;;;;6293838;28;20634;-79
2021/06/05 23:53:41;;;;;;;6.53;5.82;;;15.20;99.90;;;;;;6276027;28;20343;-79
2021/06/05 23:56:42;;;;;;;6.53;5.85;;;;;;;;;;6258659;28;20020;-79
2021/06/05 23:59:43;;;;;;;5.97;5.35;;;;;;;;;;6293125;28;20037;-79
